sensor_id;sensor_type;location;lat;lon;timestamp;P1;durP1;ratioP1;P2;durP2;ratioP2
75593;SDS011;64176;49.156;7.810;2023-10-19T00:01:44;16.17;;;10.00;;
75593;SDS011;64176;49.156;7.810;2023-10-19T00:04:28;13.40;;;9.32;;
75593;SDS011;64176;49.156;7.810;2023-10-19T00:07:19;14.25;;;9.30;;
75593;SDS011;64176;49.156;7.810;2023-10-19T00:10:08;18.30;;;10.60;;
75593;SDS011;64176;49.156;7.810;2023-10-19T00:12:53;15.40;;;8.63;;
75593;SDS011;64176;49.156;7.810;2023-10-19T00:15:44;12.82;;;8.93;;
75593;SDS011;64176;49.156;7.810;2023-10-19T00:18:37;14.35;;;9.05;;
75593;SDS011;64176;49.156;7.810;2023-10-19T00:21:29;12.63;;;8.10;;
75593;SDS011;64176;49.156;7.810;2023-10-19T00:24:17;12.75;;;9.23;;
75593;SDS011;64176;49.156;7.810;2023-10-19T00:27:06;15.45;;;10.23;;
75593;SDS011;64176;49.156;7.810;2023-10-19T00:30:03;12.80;;;9.13;;
75593;SDS011;64176;49.156;7.810;2023-10-19T00:32:50;14.50;;;9.13;;
75593;SDS011;64176;49.156;7.810;2023-10-19T00:35:34;15.77;;;10.88;;
75593;SDS011;64176;49.156;7.810;2023-10-19T00:38:26;14.68;;;10.27;;
75593;SDS011;64176;49.156;7.810;2023-10-19T00:41:11;16.83;;;9.85;;
75593;SDS011;64176;49.156;7.810;2023-10-19T00:43:55;15.07;;;9.65;;
75593;SDS011;64176;49.156;7.810;2023-10-19T00:46:49;17.02;;;10.27;;
75593;SDS011;64176;49.156;7.810;2023-10-19T00:49:45;16.23;;;10.18;;
75593;SDS011;64176;49.156;7.810;2023-10-19T00:52:31;14.18;;;9.82;;
75593;SDS011;64176;49.156;7.810;2023-10-19T00:55:16;17.23;;;10.73;;
75593;SDS011;64176;49.156;7.810;2023-10-19T00:58:05;15.80;;;9.77;;
75593;SDS011;64176;49.156;7.810;2023-10-19T01:00:53;14.57;;;9.80;;
75593;SDS011;64176;49.156;7.810;2023-10-19T01:03:39;15.73;;;10.68;;
75593;SDS011;64176;49.156;7.810;2023-10-19T01:06:24;21.23;;;12.25;;
75593;SDS011;64176;49.156;7.810;2023-10-19T01:09:16;18.55;;;11.07;;
75593;SDS011;64176;49.156;7.810;2023-10-19T01:12:03;19.50;;;11.65;;
75593;SDS011;64176;49.156;7.810;2023-10-19T01:18:06;18.35;;;10.82;;
75593;SDS011;64176;49.156;7.810;2023-10-19T01:20:54;17.33;;;11.25;;
75593;SDS011;64176;49.156;7.810;2023-10-19T01:23:39;16.40;;;10.68;;
75593;SDS011;64176;49.156;7.810;2023-10-19T01:26:23;18.25;;;11.18;;
75593;SDS011;64176;49.156;7.810;2023-10-19T01:29:10;19.33;;;11.05;;
75593;SDS011;64176;49.156;7.810;2023-10-19T01:32:00;15.10;;;10.55;;
75593;SDS011;64176;49.156;7.810;2023-10-19T01:34:52;17.95;;;10.48;;
75593;SDS011;64176;49.156;7.810;2023-10-19T01:37:35;16.98;;;10.45;;
75593;SDS011;64176;49.156;7.810;2023-10-19T01:40:21;15.32;;;9.90;;
75593;SDS011;64176;49.156;7.810;2023-10-19T01:43:05;16.38;;;11.18;;
75593;SDS011;64176;49.156;7.810;2023-10-19T01:45:52;15.43;;;10.50;;
75593;SDS011;64176;49.156;7.810;2023-10-19T01:48:42;21.23;;;11.18;;
75593;SDS011;64176;49.156;7.810;2023-10-19T01:51:33;15.07;;;10.10;;
75593;SDS011;64176;49.156;7.810;2023-10-19T01:54:27;15.02;;;9.93;;
75593;SDS011;64176;49.156;7.810;2023-10-19T01:57:11;17.52;;;10.45;;
75593;SDS011;64176;49.156;7.810;2023-10-19T02:00:00;18.05;;;11.05;;
75593;SDS011;64176;49.156;7.810;2023-10-19T02:02:56;18.38;;;11.00;;
75593;SDS011;64176;49.156;7.810;2023-10-19T02:05:41;17.92;;;11.25;;
75593;SDS011;64176;49.156;7.810;2023-10-19T02:08:27;16.85;;;11.55;;
75593;SDS011;64176;49.156;7.810;2023-10-19T02:11:11;18.30;;;11.15;;
75593;SDS011;64176;49.156;7.810;2023-10-19T02:14:02;17.25;;;11.20;;
75593;SDS011;64176;49.156;7.810;2023-10-19T02:16:51;19.33;;;12.55;;
75593;SDS011;64176;49.156;7.810;2023-10-19T02:22:21;16.73;;;10.23;;
75593;SDS011;64176;49.156;7.810;2023-10-19T02:25:05;18.38;;;10.73;;
75593;SDS011;64176;49.156;7.810;2023-10-19T02:27:49;14.48;;;9.43;;
75593;SDS011;64176;49.156;7.810;2023-10-19T02:30:34;19.33;;;11.48;;
75593;SDS011;64176;49.156;7.810;2023-10-19T02:33:21;21.48;;;12.35;;
75593;SDS011;64176;49.156;7.810;2023-10-19T02:36:12;15.60;;;10.25;;
75593;SDS011;64176;49.156;7.810;2023-10-19T02:39:00;19.92;;;11.63;;
75593;SDS011;64176;49.156;7.810;2023-10-19T02:44:37;16.73;;;11.02;;
75593;SDS011;64176;49.156;7.810;2023-10-19T02:47:26;14.88;;;9.98;;
75593;SDS011;64176;49.156;7.810;2023-10-19T02:50:12;15.18;;;9.75;;
75593;SDS011;64176;49.156;7.810;2023-10-19T02:53:06;18.52;;;10.73;;
75593;SDS011;64176;49.156;7.810;2023-10-19T02:55:50;15.45;;;8.57;;
75593;SDS011;64176;49.156;7.810;2023-10-19T02:58:40;13.55;;;7.00;;
75593;SDS011;64176;49.156;7.810;2023-10-19T03:01:26;11.32;;;6.75;;
75593;SDS011;64176;49.156;7.810;2023-10-19T03:04:15;12.65;;;7.22;;
75593;SDS011;64176;49.156;7.810;2023-10-19T03:07:00;13.50;;;7.57;;
75593;SDS011;64176;49.156;7.810;2023-10-19T03:09:47;10.18;;;6.68;;
75593;SDS011;64176;49.156;7.810;2023-10-19T03:15:27;13.40;;;7.63;;
75593;SDS011;64176;49.156;7.810;2023-10-19T03:18:13;19.48;;;9.98;;
75593;SDS011;64176;49.156;7.810;2023-10-19T03:21:00;14.88;;;8.18;;
75593;SDS011;64176;49.156;7.810;2023-10-19T03:23:47;14.50;;;8.52;;
75593;SDS011;64176;49.156;7.810;2023-10-19T03:26:32;15.38;;;8.90;;
75593;SDS011;64176;49.156;7.810;2023-10-19T03:29:20;15.15;;;8.00;;
75593;SDS011;64176;49.156;7.810;2023-10-19T03:32:14;12.80;;;7.80;;
75593;SDS011;64176;49.156;7.810;2023-10-19T03:35:06;10.77;;;7.13;;
75593;SDS011;64176;49.156;7.810;2023-10-19T03:38:01;14.02;;;9.10;;
75593;SDS011;64176;49.156;7.810;2023-10-19T03:40:52;15.02;;;7.45;;
75593;SDS011;64176;49.156;7.810;2023-10-19T03:43:43;10.52;;;7.18;;
75593;SDS011;64176;49.156;7.810;2023-10-19T03:46:30;11.70;;;6.78;;
75593;SDS011;64176;49.156;7.810;2023-10-19T03:49:21;9.93;;;7.53;;
75593;SDS011;64176;49.156;7.810;2023-10-19T03:52:07;12.50;;;7.88;;
75593;SDS011;64176;49.156;7.810;2023-10-19T03:54:54;10.93;;;6.93;;
75593;SDS011;64176;49.156;7.810;2023-10-19T03:57:41;11.25;;;6.28;;
75593;SDS011;64176;49.156;7.810;2023-10-19T04:00:30;10.43;;;6.05;;
75593;SDS011;64176;49.156;7.810;2023-10-19T04:03:20;10.57;;;6.53;;
75593;SDS011;64176;49.156;7.810;2023-10-19T04:06:08;11.30;;;6.15;;
75593;SDS011;64176;49.156;7.810;2023-10-19T04:08:57;11.65;;;7.45;;
75593;SDS011;64176;49.156;7.810;2023-10-19T04:11:43;8.90;;;6.25;;
75593;SDS011;64176;49.156;7.810;2023-10-19T04:14:33;10.57;;;6.63;;
75593;SDS011;64176;49.156;7.810;2023-10-19T04:17:17;12.15;;;6.65;;
75593;SDS011;64176;49.156;7.810;2023-10-19T04:20:07;13.75;;;7.32;;
75593;SDS011;64176;49.156;7.810;2023-10-19T04:23:10;10.20;;;6.25;;
75593;SDS011;64176;49.156;7.810;2023-10-19T04:25:55;11.52;;;7.45;;
75593;SDS011;64176;49.156;7.810;2023-10-19T04:31:36;12.63;;;7.25;;
75593;SDS011;64176;49.156;7.810;2023-10-19T04:34:32;10.98;;;6.43;;
75593;SDS011;64176;49.156;7.810;2023-10-19T04:37:19;11.05;;;7.05;;
75593;SDS011;64176;49.156;7.810;2023-10-19T04:40:03;12.10;;;7.03;;
75593;SDS011;64176;49.156;7.810;2023-10-19T04:42:51;9.13;;;6.53;;
75593;SDS011;64176;49.156;7.810;2023-10-19T04:45:39;13.10;;;8.93;;
75593;SDS011;64176;49.156;7.810;2023-10-19T04:48:23;12.10;;;7.57;;
75593;SDS011;64176;49.156;7.810;2023-10-19T04:51:10;12.27;;;6.70;;
75593;SDS011;64176;49.156;7.810;2023-10-19T04:53:54;10.05;;;7.60;;
75593;SDS011;64176;49.156;7.810;2023-10-19T04:56:43;12.88;;;7.38;;
75593;SDS011;64176;49.156;7.810;2023-10-19T04:59:30;11.05;;;7.30;;
75593;SDS011;64176;49.156;7.810;2023-10-19T05:02:16;13.60;;;8.20;;
75593;SDS011;64176;49.156;7.810;2023-10-19T05:05:08;11.48;;;7.70;;
75593;SDS011;64176;49.156;7.810;2023-10-19T05:07:52;11.90;;;9.07;;
75593;SDS011;64176;49.156;7.810;2023-10-19T05:10:36;12.48;;;8.38;;
75593;SDS011;64176;49.156;7.810;2023-10-19T05:13:22;9.23;;;7.78;;
75593;SDS011;64176;49.156;7.810;2023-10-19T05:16:07;9.55;;;7.25;;
75593;SDS011;64176;49.156;7.810;2023-10-19T05:18:51;13.18;;;8.82;;
75593;SDS011;64176;49.156;7.810;2023-10-19T05:21:35;25.20;;;11.77;;
75593;SDS011;64176;49.156;7.810;2023-10-19T05:24:19;18.98;;;10.70;;
75593;SDS011;64176;49.156;7.810;2023-10-19T05:27:06;47.60;;;12.00;;
75593;SDS011;64176;49.156;7.810;2023-10-19T05:29:52;128.40;;;22.90;;
75593;SDS011;64176;49.156;7.810;2023-10-19T05:32:36;80.70;;;17.55;;
75593;SDS011;64176;49.156;7.810;2023-10-19T05:35:20;74.95;;;20.95;;
75593;SDS011;64176;49.156;7.810;2023-10-19T05:38:09;134.82;;;25.98;;
75593;SDS011;64176;49.156;7.810;2023-10-19T05:40:56;66.05;;;16.90;;
75593;SDS011;64176;49.156;7.810;2023-10-19T05:46:24;66.95;;;16.35;;
75593;SDS011;64176;49.156;7.810;2023-10-19T05:49:09;154.25;;;21.40;;
75593;SDS011;64176;49.156;7.810;2023-10-19T05:51:53;112.32;;;20.90;;
75593;SDS011;64176;49.156;7.810;2023-10-19T05:54:38;100.05;;;23.27;;
75593;SDS011;64176;49.156;7.810;2023-10-19T05:57:22;60.25;;;19.17;;
75593;SDS011;64176;49.156;7.810;2023-10-19T06:00:07;67.32;;;18.27;;
75593;SDS011;64176;49.156;7.810;2023-10-19T06:02:58;58.88;;;17.13;;
75593;SDS011;64176;49.156;7.810;2023-10-19T06:05:45;80.10;;;18.02;;
75593;SDS011;64176;49.156;7.810;2023-10-19T06:08:29;76.95;;;17.15;;
75593;SDS011;64176;49.156;7.810;2023-10-19T06:11:15;58.90;;;16.70;;
75593;SDS011;64176;49.156;7.810;2023-10-19T06:14:01;69.57;;;19.73;;
75593;SDS011;64176;49.156;7.810;2023-10-19T06:16:51;32.55;;;14.93;;
75593;SDS011;64176;49.156;7.810;2023-10-19T06:19:40;26.75;;;12.98;;
75593;SDS011;64176;49.156;7.810;2023-10-19T06:22:25;30.98;;;13.80;;
75593;SDS011;64176;49.156;7.810;2023-10-19T06:27:58;47.33;;;16.33;;
75593;SDS011;64176;49.156;7.810;2023-10-19T06:30:45;48.05;;;16.95;;
75593;SDS011;64176;49.156;7.810;2023-10-19T06:33:31;36.53;;;15.75;;
75593;SDS011;64176;49.156;7.810;2023-10-19T06:36:22;37.15;;;15.20;;
75593;SDS011;64176;49.156;7.810;2023-10-19T06:39:08;32.30;;;16.98;;
75593;SDS011;64176;49.156;7.810;2023-10-19T06:41:52;29.65;;;16.50;;
75593;SDS011;64176;49.156;7.810;2023-10-19T06:44:36;27.05;;;15.43;;
75593;SDS011;64176;49.156;7.810;2023-10-19T06:47:20;28.40;;;17.42;;
75593;SDS011;64176;49.156;7.810;2023-10-19T06:50:07;22.75;;;14.52;;
75593;SDS011;64176;49.156;7.810;2023-10-19T06:52:53;28.65;;;17.13;;
75593;SDS011;64176;49.156;7.810;2023-10-19T06:55:38;28.83;;;18.70;;
75593;SDS011;64176;49.156;7.810;2023-10-19T06:58:23;34.22;;;24.58;;
75593;SDS011;64176;49.156;7.810;2023-10-19T07:01:12;30.17;;;22.45;;
75593;SDS011;64176;49.156;7.810;2023-10-19T07:04:00;34.80;;;22.42;;
75593;SDS011;64176;49.156;7.810;2023-10-19T07:06:44;36.08;;;22.33;;
75593;SDS011;64176;49.156;7.810;2023-10-19T07:09:31;38.58;;;25.02;;
75593;SDS011;64176;49.156;7.810;2023-10-19T07:12:16;44.00;;;24.60;;
75593;SDS011;64176;49.156;7.810;2023-10-19T07:15:04;38.17;;;23.30;;
75593;SDS011;64176;49.156;7.810;2023-10-19T07:17:51;34.97;;;20.55;;
75593;SDS011;64176;49.156;7.810;2023-10-19T07:20:44;32.47;;;18.38;;
75593;SDS011;64176;49.156;7.810;2023-10-19T07:23:32;28.25;;;17.00;;
75593;SDS011;64176;49.156;7.810;2023-10-19T07:26:15;33.70;;;18.92;;
75593;SDS011;64176;49.156;7.810;2023-10-19T07:28:59;31.50;;;19.00;;
75593;SDS011;64176;49.156;7.810;2023-10-19T07:31:43;30.35;;;18.67;;
75593;SDS011;64176;49.156;7.810;2023-10-19T07:34:33;44.65;;;25.42;;
75593;SDS011;64176;49.156;7.810;2023-10-19T07:37:18;57.17;;;30.35;;
75593;SDS011;64176;49.156;7.810;2023-10-19T07:40:02;53.22;;;33.85;;
75593;SDS011;64176;49.156;7.810;2023-10-19T07:42:48;66.13;;;31.02;;
75593;SDS011;64176;49.156;7.810;2023-10-19T07:45:35;52.10;;;28.95;;
75593;SDS011;64176;49.156;7.810;2023-10-19T07:48:22;98.18;;;33.65;;
75593;SDS011;64176;49.156;7.810;2023-10-19T07:51:15;145.25;;;35.78;;
75593;SDS011;64176;49.156;7.810;2023-10-19T07:54:00;65.38;;;28.60;;
75593;SDS011;64176;49.156;7.810;2023-10-19T07:56:46;54.70;;;24.58;;
75593;SDS011;64176;49.156;7.810;2023-10-19T07:59:30;124.85;;;28.73;;
75593;SDS011;64176;49.156;7.810;2023-10-19T08:02:14;114.10;;;27.08;;
75593;SDS011;64176;49.156;7.810;2023-10-19T08:04:58;68.10;;;23.77;;
75593;SDS011;64176;49.156;7.810;2023-10-19T08:07:43;74.65;;;25.50;;
75593;SDS011;64176;49.156;7.810;2023-10-19T08:10:31;84.38;;;25.42;;
75593;SDS011;64176;49.156;7.810;2023-10-19T08:13:18;66.38;;;26.17;;
75593;SDS011;64176;49.156;7.810;2023-10-19T08:16:04;55.95;;;25.50;;
75593;SDS011;64176;49.156;7.810;2023-10-19T08:18:50;59.35;;;20.42;;
75593;SDS011;64176;49.156;7.810;2023-10-19T08:21:36;31.92;;;17.33;;
75593;SDS011;64176;49.156;7.810;2023-10-19T08:24:21;47.53;;;16.85;;
75593;SDS011;64176;49.156;7.810;2023-10-19T08:27:12;42.50;;;19.42;;
75593;SDS011;64176;49.156;7.810;2023-10-19T08:29:56;30.40;;;16.58;;
75593;SDS011;64176;49.156;7.810;2023-10-19T08:32:43;24.58;;;15.60;;
75593;SDS011;64176;49.156;7.810;2023-10-19T08:35:31;22.52;;;15.18;;
75593;SDS011;64176;49.156;7.810;2023-10-19T08:38:19;16.77;;;11.65;;
75593;SDS011;64176;49.156;7.810;2023-10-19T08:41:03;21.92;;;11.15;;
75593;SDS011;64176;49.156;7.810;2023-10-19T08:43:50;30.77;;;12.23;;
75593;SDS011;64176;49.156;7.810;2023-10-19T08:46:34;23.20;;;12.15;;
75593;SDS011;64176;49.156;7.810;2023-10-19T08:49:21;16.08;;;10.35;;
75593;SDS011;64176;49.156;7.810;2023-10-19T08:52:08;14.80;;;10.48;;
75593;SDS011;64176;49.156;7.810;2023-10-19T08:54:53;15.43;;;9.80;;
75593;SDS011;64176;49.156;7.810;2023-10-19T08:57:37;13.52;;;9.90;;
75593;SDS011;64176;49.156;7.810;2023-10-19T09:00:22;11.55;;;9.10;;
75593;SDS011;64176;49.156;7.810;2023-10-19T09:03:08;14.25;;;12.05;;
75593;SDS011;64176;49.156;7.810;2023-10-19T09:06:00;11.50;;;10.15;;
75593;SDS011;64176;49.156;7.810;2023-10-19T09:08:47;11.93;;;9.55;;
75593;SDS011;64176;49.156;7.810;2023-10-19T09:11:32;14.88;;;13.38;;
75593;SDS011;64176;49.156;7.810;2023-10-19T09:14:19;8.80;;;7.13;;
75593;SDS011;64176;49.156;7.810;2023-10-19T09:17:30;8.05;;;6.82;;
75593;SDS011;64176;49.156;7.810;2023-10-19T09:20:15;9.80;;;6.63;;
75593;SDS011;64176;49.156;7.810;2023-10-19T09:23:13;6.25;;;5.55;;
75593;SDS011;64176;49.156;7.810;2023-10-19T09:25:58;7.40;;;4.63;;
75593;SDS011;64176;49.156;7.810;2023-10-19T09:28:51;8.65;;;5.30;;
75593;SDS011;64176;49.156;7.810;2023-10-19T09:31:35;6.90;;;4.78;;
75593;SDS011;64176;49.156;7.810;2023-10-19T09:34:20;5.82;;;5.20;;
75593;SDS011;64176;49.156;7.810;2023-10-19T09:37:05;6.93;;;4.90;;
75593;SDS011;64176;49.156;7.810;2023-10-19T09:39:52;7.10;;;4.85;;
75593;SDS011;64176;49.156;7.810;2023-10-19T09:42:40;5.50;;;4.03;;
75593;SDS011;64176;49.156;7.810;2023-10-19T09:45:30;4.97;;;4.50;;
75593;SDS011;64176;49.156;7.810;2023-10-19T09:48:23;5.32;;;4.10;;
75593;SDS011;64176;49.156;7.810;2023-10-19T09:51:09;5.47;;;3.83;;
75593;SDS011;64176;49.156;7.810;2023-10-19T09:53:58;5.15;;;4.18;;
75593;SDS011;64176;49.156;7.810;2023-10-19T09:56:50;5.47;;;4.00;;
75593;SDS011;64176;49.156;7.810;2023-10-19T09:59:47;4.30;;;3.90;;
75593;SDS011;64176;49.156;7.810;2023-10-19T10:02:42;5.80;;;4.00;;
75593;SDS011;64176;49.156;7.810;2023-10-19T10:06:00;5.22;;;4.47;;
75593;SDS011;64176;49.156;7.810;2023-10-19T10:08:42;5.95;;;4.35;;
75593;SDS011;64176;49.156;7.810;2023-10-19T10:11:27;6.10;;;3.97;;
75593;SDS011;64176;49.156;7.810;2023-10-19T10:14:19;4.80;;;4.22;;
75593;SDS011;64176;49.156;7.810;2023-10-19T10:17:06;5.18;;;4.68;;
75593;SDS011;64176;49.156;7.810;2023-10-19T10:19:53;7.05;;;5.80;;
75593;SDS011;64176;49.156;7.810;2023-10-19T10:26:27;15.43;;;9.43;;
75593;SDS011;64176;49.156;7.810;2023-10-19T10:29:31;8.70;;;6.63;;
75593;SDS011;64176;49.156;7.810;2023-10-19T10:32:42;11.95;;;8.30;;
75593;SDS011;64176;49.156;7.810;2023-10-19T10:38:24;14.07;;;8.98;;
75593;SDS011;64176;49.156;7.810;2023-10-19T10:41:20;12.48;;;9.85;;
75593;SDS011;64176;49.156;7.810;2023-10-19T10:44:11;40.08;;;27.85;;
75593;SDS011;64176;49.156;7.810;2023-10-19T10:46:55;41.25;;;32.25;;
75593;SDS011;64176;49.156;7.810;2023-10-19T10:49:47;29.23;;;18.50;;
75593;SDS011;64176;49.156;7.810;2023-10-19T10:52:41;11.50;;;10.05;;
75593;SDS011;64176;49.156;7.810;2023-10-19T10:55:27;15.38;;;12.43;;
75593;SDS011;64176;49.156;7.810;2023-10-19T10:58:15;9.43;;;8.13;;
75593;SDS011;64176;49.156;7.810;2023-10-19T11:00:59;7.93;;;5.43;;
75593;SDS011;64176;49.156;7.810;2023-10-19T11:03:44;3.05;;;1.88;;
75593;SDS011;64176;49.156;7.810;2023-10-19T11:06:28;8.25;;;5.38;;
75593;SDS011;64176;49.156;7.810;2023-10-19T11:12:09;7.22;;;4.60;;
75593;SDS011;64176;49.156;7.810;2023-10-19T11:17:43;4.78;;;2.60;;
75593;SDS011;64176;49.156;7.810;2023-10-19T11:20:29;4.30;;;3.08;;
75593;SDS011;64176;49.156;7.810;2023-10-19T11:23:13;5.07;;;2.72;;
75593;SDS011;64176;49.156;7.810;2023-10-19T11:26:00;2.78;;;2.05;;
75593;SDS011;64176;49.156;7.810;2023-10-19T11:28:46;4.60;;;2.92;;
75593;SDS011;64176;49.156;7.810;2023-10-19T11:31:40;4.43;;;2.90;;
75593;SDS011;64176;49.156;7.810;2023-10-19T11:34:25;5.07;;;2.80;;
75593;SDS011;64176;49.156;7.810;2023-10-19T11:37:12;4.45;;;3.08;;
75593;SDS011;64176;49.156;7.810;2023-10-19T11:40:00;3.95;;;2.75;;
75593;SDS011;64176;49.156;7.810;2023-10-19T11:42:44;5.43;;;3.10;;
75593;SDS011;64176;49.156;7.810;2023-10-19T11:45:28;5.85;;;3.53;;
75593;SDS011;64176;49.156;7.810;2023-10-19T11:48:15;5.35;;;3.30;;
75593;SDS011;64176;49.156;7.810;2023-10-19T11:51:03;6.97;;;5.18;;
75593;SDS011;64176;49.156;7.810;2023-10-19T11:53:50;6.03;;;4.97;;
75593;SDS011;64176;49.156;7.810;2023-10-19T11:56:34;3.90;;;3.13;;
75593;SDS011;64176;49.156;7.810;2023-10-19T11:59:21;6.50;;;4.63;;
75593;SDS011;64176;49.156;7.810;2023-10-19T12:02:05;7.43;;;6.25;;
75593;SDS011;64176;49.156;7.810;2023-10-19T12:04:50;6.50;;;4.20;;
75593;SDS011;64176;49.156;7.810;2023-10-19T12:07:36;5.13;;;3.80;;
75593;SDS011;64176;49.156;7.810;2023-10-19T12:10:21;5.57;;;4.82;;
75593;SDS011;64176;49.156;7.810;2023-10-19T12:13:12;6.95;;;5.00;;
75593;SDS011;64176;49.156;7.810;2023-10-19T12:15:57;8.35;;;5.65;;
75593;SDS011;64176;49.156;7.810;2023-10-19T12:18:42;6.85;;;6.15;;
75593;SDS011;64176;49.156;7.810;2023-10-19T12:21:27;6.50;;;5.47;;
75593;SDS011;64176;49.156;7.810;2023-10-19T12:24:12;5.50;;;4.43;;
75593;SDS011;64176;49.156;7.810;2023-10-19T12:26:59;5.07;;;4.55;;
75593;SDS011;64176;49.156;7.810;2023-10-19T12:29:46;5.80;;;4.20;;
75593;SDS011;64176;49.156;7.810;2023-10-19T12:32:36;7.50;;;5.72;;
75593;SDS011;64176;49.156;7.810;2023-10-19T12:35:31;7.05;;;5.75;;
75593;SDS011;64176;49.156;7.810;2023-10-19T12:38:54;5.18;;;4.65;;
75593;SDS011;64176;49.156;7.810;2023-10-19T12:41:40;7.88;;;6.40;;
75593;SDS011;64176;49.156;7.810;2023-10-19T12:47:22;5.28;;;4.20;;
75593;SDS011;64176;49.156;7.810;2023-10-19T12:50:10;5.13;;;3.42;;
75593;SDS011;64176;49.156;7.810;2023-10-19T12:52:56;6.68;;;4.25;;
75593;SDS011;64176;49.156;7.810;2023-10-19T12:55:40;5.78;;;5.15;;
75593;SDS011;64176;49.156;7.810;2023-10-19T12:58:30;5.32;;;4.40;;
75593;SDS011;64176;49.156;7.810;2023-10-19T13:01:16;5.68;;;4.13;;
75593;SDS011;64176;49.156;7.810;2023-10-19T13:04:01;6.57;;;5.35;;
75593;SDS011;64176;49.156;7.810;2023-10-19T13:06:52;6.43;;;5.25;;
75593;SDS011;64176;49.156;7.810;2023-10-19T13:09:41;7.60;;;6.50;;
75593;SDS011;64176;49.156;7.810;2023-10-19T13:15:14;10.25;;;8.98;;
75593;SDS011;64176;49.156;7.810;2023-10-19T13:18:04;8.75;;;6.68;;
75593;SDS011;64176;49.156;7.810;2023-10-19T13:20:50;6.32;;;4.85;;
75593;SDS011;64176;49.156;7.810;2023-10-19T13:23:39;32.83;;;29.73;;
75593;SDS011;64176;49.156;7.810;2023-10-19T13:26:26;18.15;;;16.45;;
75593;SDS011;64176;49.156;7.810;2023-10-19T13:29:15;9.20;;;7.93;;
75593;SDS011;64176;49.156;7.810;2023-10-19T13:32:01;9.95;;;8.02;;
75593;SDS011;64176;49.156;7.810;2023-10-19T13:34:45;8.15;;;4.65;;
75593;SDS011;64176;49.156;7.810;2023-10-19T13:40:15;13.75;;;8.85;;
75593;SDS011;64176;49.156;7.810;2023-10-19T13:43:00;14.05;;;10.65;;
75593;SDS011;64176;49.156;7.810;2023-10-19T13:45:44;10.40;;;7.85;;
75593;SDS011;64176;49.156;7.810;2023-10-19T13:48:31;9.80;;;6.93;;
75593;SDS011;64176;49.156;7.810;2023-10-19T13:51:18;12.00;;;9.55;;
75593;SDS011;64176;49.156;7.810;2023-10-19T13:54:03;11.63;;;9.23;;
75593;SDS011;64176;49.156;7.810;2023-10-19T13:56:50;26.40;;;17.05;;
75593;SDS011;64176;49.156;7.810;2023-10-19T13:59:34;36.97;;;25.55;;
75593;SDS011;64176;49.156;7.810;2023-10-19T14:02:18;22.45;;;16.02;;
75593;SDS011;64176;49.156;7.810;2023-10-19T14:05:06;22.08;;;12.80;;
75593;SDS011;64176;49.156;7.810;2023-10-19T14:07:51;9.38;;;6.95;;
75593;SDS011;64176;49.156;7.810;2023-10-19T14:10:37;20.70;;;16.30;;
75593;SDS011;64176;49.156;7.810;2023-10-19T14:13:24;45.95;;;30.70;;
75593;SDS011;64176;49.156;7.810;2023-10-19T14:16:08;18.23;;;12.75;;
75593;SDS011;64176;49.156;7.810;2023-10-19T14:18:53;10.82;;;7.95;;
75593;SDS011;64176;49.156;7.810;2023-10-19T14:21:40;15.68;;;10.13;;
75593;SDS011;64176;49.156;7.810;2023-10-19T14:24:24;36.80;;;20.20;;
75593;SDS011;64176;49.156;7.810;2023-10-19T14:29:57;31.77;;;19.17;;
75593;SDS011;64176;49.156;7.810;2023-10-19T14:32:41;21.52;;;12.57;;
75593;SDS011;64176;49.156;7.810;2023-10-19T14:35:32;8.52;;;5.85;;
75593;SDS011;64176;49.156;7.810;2023-10-19T14:38:18;6.05;;;4.32;;
75593;SDS011;64176;49.156;7.810;2023-10-19T14:41:05;4.63;;;3.83;;
75593;SDS011;64176;49.156;7.810;2023-10-19T14:43:49;9.50;;;5.75;;
75593;SDS011;64176;49.156;7.810;2023-10-19T14:46:33;4.90;;;3.28;;
75593;SDS011;64176;49.156;7.810;2023-10-19T14:49:17;4.32;;;3.15;;
75593;SDS011;64176;49.156;7.810;2023-10-19T14:52:04;5.95;;;5.35;;
75593;SDS011;64176;49.156;7.810;2023-10-19T14:54:49;4.50;;;3.63;;
75593;SDS011;64176;49.156;7.810;2023-10-19T14:57:34;5.15;;;3.78;;
75593;SDS011;64176;49.156;7.810;2023-10-19T15:00:22;6.93;;;6.05;;
75593;SDS011;64176;49.156;7.810;2023-10-19T15:03:27;5.40;;;4.90;;
75593;SDS011;64176;49.156;7.810;2023-10-19T15:06:18;8.27;;;7.47;;
75593;SDS011;64176;49.156;7.810;2023-10-19T15:09:04;9.13;;;7.78;;
75593;SDS011;64176;49.156;7.810;2023-10-19T15:11:48;8.82;;;7.93;;
75593;SDS011;64176;49.156;7.810;2023-10-19T15:14:34;8.43;;;6.95;;
75593;SDS011;64176;49.156;7.810;2023-10-19T15:17:27;5.60;;;5.10;;
75593;SDS011;64176;49.156;7.810;2023-10-19T15:20:12;5.72;;;5.10;;
75593;SDS011;64176;49.156;7.810;2023-10-19T15:22:59;8.82;;;7.93;;
75593;SDS011;64176;49.156;7.810;2023-10-19T15:25:43;7.72;;;5.32;;
75593;SDS011;64176;49.156;7.810;2023-10-19T15:28:28;3.00;;;2.30;;
75593;SDS011;64176;49.156;7.810;2023-10-19T15:31:19;4.78;;;2.67;;
75593;SDS011;64176;49.156;7.810;2023-10-19T15:34:04;3.67;;;2.92;;
75593;SDS011;64176;49.156;7.810;2023-10-19T15:36:48;4.03;;;3.03;;
75593;SDS011;64176;49.156;7.810;2023-10-19T15:39:35;3.88;;;2.85;;
75593;SDS011;64176;49.156;7.810;2023-10-19T15:42:23;2.88;;;2.58;;
75593;SDS011;64176;49.156;7.810;2023-10-19T15:45:08;3.78;;;3.47;;
75593;SDS011;64176;49.156;7.810;2023-10-19T15:47:53;5.57;;;2.97;;
75593;SDS011;64176;49.156;7.810;2023-10-19T15:50:42;3.78;;;2.78;;
75593;SDS011;64176;49.156;7.810;2023-10-19T15:53:27;4.97;;;4.18;;
75593;SDS011;64176;49.156;7.810;2023-10-19T15:56:15;4.50;;;3.78;;
75593;SDS011;64176;49.156;7.810;2023-10-19T15:59:01;4.63;;;4.10;;
75593;SDS011;64176;49.156;7.810;2023-10-19T16:01:45;15.32;;;12.35;;
75593;SDS011;64176;49.156;7.810;2023-10-19T16:04:32;10.82;;;9.73;;
75593;SDS011;64176;49.156;7.810;2023-10-19T16:07:16;16.05;;;14.35;;
75593;SDS011;64176;49.156;7.810;2023-10-19T16:10:00;42.13;;;34.40;;
75593;SDS011;64176;49.156;7.810;2023-10-19T16:12:44;13.65;;;11.45;;
75593;SDS011;64176;49.156;7.810;2023-10-19T16:15:31;7.38;;;6.32;;
75593;SDS011;64176;49.156;7.810;2023-10-19T16:18:15;12.30;;;11.10;;
75593;SDS011;64176;49.156;7.810;2023-10-19T16:21:05;13.32;;;10.23;;
75593;SDS011;64176;49.156;7.810;2023-10-19T16:23:50;18.13;;;16.20;;
75593;SDS011;64176;49.156;7.810;2023-10-19T16:26:37;17.58;;;15.75;;
75593;SDS011;64176;49.156;7.810;2023-10-19T16:29:23;12.68;;;10.57;;
75593;SDS011;64176;49.156;7.810;2023-10-19T16:34:54;12.02;;;9.75;;
75593;SDS011;64176;49.156;7.810;2023-10-19T16:37:40;10.57;;;9.50;;
75593;SDS011;64176;49.156;7.810;2023-10-19T16:40:25;18.02;;;9.90;;
75593;SDS011;64176;49.156;7.810;2023-10-19T16:43:09;17.10;;;11.85;;
75593;SDS011;64176;49.156;7.810;2023-10-19T16:45:54;17.27;;;13.63;;
75593;SDS011;64176;49.156;7.810;2023-10-19T16:48:38;19.48;;;16.60;;
75593;SDS011;64176;49.156;7.810;2023-10-19T16:51:22;19.70;;;14.20;;
75593;SDS011;64176;49.156;7.810;2023-10-19T16:54:11;28.58;;;20.02;;
75593;SDS011;64176;49.156;7.810;2023-10-19T16:56:55;45.58;;;31.58;;
75593;SDS011;64176;49.156;7.810;2023-10-19T16:59:42;27.08;;;20.25;;
75593;SDS011;64176;49.156;7.810;2023-10-19T17:02:31;16.92;;;12.73;;
75593;SDS011;64176;49.156;7.810;2023-10-19T17:05:19;17.80;;;15.07;;
75593;SDS011;64176;49.156;7.810;2023-10-19T17:08:03;17.63;;;12.68;;
75593;SDS011;64176;49.156;7.810;2023-10-19T17:10:47;17.75;;;14.32;;
75593;SDS011;64176;49.156;7.810;2023-10-19T17:13:35;19.30;;;14.45;;
75593;SDS011;64176;49.156;7.810;2023-10-19T17:16:22;17.33;;;14.75;;
75593;SDS011;64176;49.156;7.810;2023-10-19T17:19:06;19.70;;;12.90;;